sensor_id;sensor_type;location;lat;lon;timestamp;pressure;altitude;pressure_sealevel;temperature;humidity
71915;BME280;60387;49.994;14.660;2023-03-12T00:02:28;97260.94;;;0.89;53.17
71915;BME280;60387;49.994;14.660;2023-03-12T00:05:02;97267.09;;;0.90;52.86
71915;BME280;60387;49.994;14.660;2023-03-12T00:07:36;97266.28;;;0.89;52.71
71915;BME280;60387;49.994;14.660;2023-03-12T00:10:10;97278.81;;;0.89;53.48
71915;BME280;60387;49.994;14.660;2023-03-12T00:12:43;97287.06;;;0.87;54.38
71915;BME280;60387;49.994;14.660;2023-03-12T00:15:17;97267.31;;;0.83;54.88
71915;BME280;60387;49.994;14.660;2023-03-12T00:17:50;97277.41;;;0.81;53.76
71915;BME280;60387;49.994;14.660;2023-03-12T00:20:24;97268.06;;;0.79;53.72
71915;BME280;60387;49.994;14.660;2023-03-12T00:22:57;97273.63;;;0.77;54.64
71915;BME280;60387;49.994;14.660;2023-03-12T00:25:30;97285.09;;;0.78;54.59
71915;BME280;60387;49.994;14.660;2023-03-12T00:28:04;97281.31;;;0.74;54.19
71915;BME280;60387;49.994;14.660;2023-03-12T00:30:37;97286.66;;;0.74;53.88
71915;BME280;60387;49.994;14.660;2023-03-12T00:33:10;97282.88;;;0.70;53.57
71915;BME280;60387;49.994;14.660;2023-03-12T00:35:44;97279.16;;;0.71;54.52
71915;BME280;60387;49.994;14.660;2023-03-12T00:38:17;97295.94;;;0.71;55.06
71915;BME280;60387;49.994;14.660;2023-03-12T00:40:51;97287.41;;;0.69;54.78
71915;BME280;60387;49.994;14.660;2023-03-12T00:43:24;97287.41;;;0.69;54.54
71915;BME280;60387;49.994;14.660;2023-03-12T00:45:57;97287.91;;;0.66;54.46
71915;BME280;60387;49.994;14.660;2023-03-12T00:48:31;97295.09;;;0.66;54.21
71915;BME280;60387;49.994;14.660;2023-03-12T00:51:04;97298.56;;;0.66;54.29
71915;BME280;60387;49.994;14.660;2023-03-12T00:53:38;97304.13;;;0.65;53.84
71915;BME280;60387;49.994;14.660;2023-03-12T00:56:11;97298.50;;;0.61;54.13
71915;BME280;60387;49.994;14.660;2023-03-12T00:58:45;97305.38;;;0.57;54.11
71915;BME280;60387;49.994;14.660;2023-03-12T01:01:18;97299.75;;;0.54;55.06
71915;BME280;60387;49.994;14.660;2023-03-12T01:03:52;97308.28;;;0.56;55.24
71915;BME280;60387;49.994;14.660;2023-03-12T01:06:25;97305.38;;;0.57;54.55
71915;BME280;60387;49.994;14.660;2023-03-12T01:09:01;97307.22;;;0.57;54.26
71915;BME280;60387;49.994;14.660;2023-03-12T01:11:36;97305.84;;;0.54;53.95
71915;BME280;60387;49.994;14.660;2023-03-12T01:14:10;97303.69;;;0.51;54.91
71915;BME280;60387;49.994;14.660;2023-03-12T01:16:43;97311.94;;;0.50;54.47
71915;BME280;60387;49.994;14.660;2023-03-12T01:19:16;97323.91;;;0.47;54.05
71915;BME280;60387;49.994;14.660;2023-03-12T01:21:50;97304.38;;;0.42;53.86
71915;BME280;60387;49.994;14.660;2023-03-12T01:24:23;97314.56;;;0.45;53.85
71915;BME280;60387;49.994;14.660;2023-03-12T01:26:56;97319.31;;;0.43;53.96
71915;BME280;60387;49.994;14.660;2023-03-12T01:29:30;97321.72;;;0.44;54.14
71915;BME280;60387;49.994;14.660;2023-03-12T01:32:03;97312.88;;;0.39;53.91
71915;BME280;60387;49.994;14.660;2023-03-12T01:34:36;97316.41;;;0.44;53.63
71915;BME280;60387;49.994;14.660;2023-03-12T01:37:10;97311.34;;;0.43;53.59
71915;BME280;60387;49.994;14.660;2023-03-12T01:39:43;97323.59;;;0.44;53.98
71915;BME280;60387;49.994;14.660;2023-03-12T01:42:16;97320.63;;;0.40;54.70
71915;BME280;60387;49.994;14.660;2023-03-12T01:44:58;97319.75;;;0.35;54.30
71915;BME280;60387;49.994;14.660;2023-03-12T01:47:32;97322.66;;;0.33;53.69
71915;BME280;60387;49.994;14.660;2023-03-12T01:50:06;97315.72;;;0.32;53.82
71915;BME280;60387;49.994;14.660;2023-03-12T01:52:39;97320.50;;;0.30;53.88
71915;BME280;60387;49.994;14.660;2023-03-12T01:55:15;97316.19;;;0.29;54.74
71915;BME280;60387;49.994;14.660;2023-03-12T01:57:51;97322.56;;;0.28;54.83
71915;BME280;60387;49.994;14.660;2023-03-12T02:00:27;97309.19;;;0.23;55.21
71915;BME280;60387;49.994;14.660;2023-03-12T02:03:05;97328.94;;;0.27;54.89
71915;BME280;60387;49.994;14.660;2023-03-12T02:05:52;97330.50;;;0.23;54.25
71915;BME280;60387;49.994;14.660;2023-03-12T02:08:27;97328.31;;;0.20;55.48
71915;BME280;60387;49.994;14.660;2023-03-12T02:11:00;97324.78;;;0.15;54.88
71915;BME280;60387;49.994;14.660;2023-03-12T02:13:34;97332.84;;;0.20;54.64
71915;BME280;60387;49.994;14.660;2023-03-12T02:16:08;97329.63;;;0.18;54.58
71915;BME280;60387;49.994;14.660;2023-03-12T02:18:42;97328.25;;;0.15;55.09
71915;BME280;60387;49.994;14.660;2023-03-12T02:21:22;97324.00;;;0.14;55.02
71915;BME280;60387;49.994;14.660;2023-03-12T02:24:12;97330.94;;;0.15;54.38
71915;BME280;60387;49.994;14.660;2023-03-12T02:26:49;97322.38;;;0.13;54.56
71915;BME280;60387;49.994;14.660;2023-03-12T02:29:30;97328.00;;;0.17;54.16
71915;BME280;60387;49.994;14.660;2023-03-12T02:32:06;97328.72;;;0.12;53.95
71915;BME280;60387;49.994;14.660;2023-03-12T02:34:40;97339.97;;;0.14;54.06
71915;BME280;60387;49.994;14.660;2023-03-12T02:37:13;97342.31;;;0.11;53.39
71915;BME280;60387;49.994;14.660;2023-03-12T02:39:52;97340.13;;;0.08;54.66
71915;BME280;60387;49.994;14.660;2023-03-12T02:42:28;97346.25;;;0.08;54.37
71915;BME280;60387;49.994;14.660;2023-03-12T02:45:02;97346.81;;;0.10;54.82
71915;BME280;60387;49.994;14.660;2023-03-12T02:47:35;97346.59;;;0.12;54.20
71915;BME280;60387;49.994;14.660;2023-03-12T02:50:09;97355.13;;;0.14;54.27
71915;BME280;60387;49.994;14.660;2023-03-12T02:52:42;97352.22;;;0.15;54.31
71915;BME280;60387;49.994;14.660;2023-03-12T02:55:16;97360.78;;;0.17;53.75
71915;BME280;60387;49.994;14.660;2023-03-12T02:57:49;97357.59;;;0.20;54.02
71915;BME280;60387;49.994;14.660;2023-03-12T03:00:23;97360.84;;;0.22;54.62
71915;BME280;60387;49.994;14.660;2023-03-12T03:02:58;97367.78;;;0.23;54.81
71915;BME280;60387;49.994;14.660;2023-03-12T03:05:31;97364.56;;;0.21;54.17
71915;BME280;60387;49.994;14.660;2023-03-12T03:08:05;97366.72;;;0.24;53.95
71915;BME280;60387;49.994;14.660;2023-03-12T03:10:38;97367.53;;;0.25;54.12
71915;BME280;60387;49.994;14.660;2023-03-12T03:13:12;97370.50;;;0.28;54.12
71915;BME280;60387;49.994;14.660;2023-03-12T03:15:45;97372.13;;;0.29;53.46
71915;BME280;60387;49.994;14.660;2023-03-12T03:18:18;97371.31;;;0.29;53.54
71915;BME280;60387;49.994;14.660;2023-03-12T03:21:00;97373.16;;;0.28;53.96
71915;BME280;60387;49.994;14.660;2023-03-12T03:23:34;97380.59;;;0.26;54.54
71915;BME280;60387;49.994;14.660;2023-03-12T03:26:08;97381.09;;;0.23;54.00
71915;BME280;60387;49.994;14.660;2023-03-12T03:28:41;97385.59;;;0.23;55.30
71915;BME280;60387;49.994;14.660;2023-03-12T03:31:15;97374.31;;;0.16;55.11
71915;BME280;60387;49.994;14.660;2023-03-12T03:33:49;97380.97;;;0.13;54.63
71915;BME280;60387;49.994;14.660;2023-03-12T03:36:22;97379.31;;;0.12;54.37
71915;BME280;60387;49.994;14.660;2023-03-12T03:38:56;97379.81;;;0.09;54.36
71915;BME280;60387;49.994;14.660;2023-03-12T03:41:29;97381.09;;;0.07;54.34
71915;BME280;60387;49.994;14.660;2023-03-12T03:44:03;97383.22;;;0.05;54.56
71915;BME280;60387;49.994;14.660;2023-03-12T03:46:36;97390.97;;;0.06;53.94
71915;BME280;60387;49.994;14.660;2023-03-12T03:49:09;97384.50;;;0.02;54.25
71915;BME280;60387;49.994;14.660;2023-03-12T03:51:43;97386.03;;;-0.02;54.12
71915;BME280;60387;49.994;14.660;2023-03-12T03:54:17;97397.41;;;-0.06;54.12
71915;BME280;60387;49.994;14.660;2023-03-12T03:56:50;97383.47;;;-0.13;54.95
71915;BME280;60387;49.994;14.660;2023-03-12T03:59:23;97389.34;;;-0.11;54.35
71915;BME280;60387;49.994;14.660;2023-03-12T04:01:57;97389.00;;;-0.14;55.10
71915;BME280;60387;49.994;14.660;2023-03-12T04:04:30;97396.75;;;-0.13;55.28
71915;BME280;60387;49.994;14.660;2023-03-12T04:07:03;97395.94;;;-0.13;54.33
71915;BME280;60387;49.994;14.660;2023-03-12T04:09:37;97404.75;;;-0.13;54.66
71915;BME280;60387;49.994;14.660;2023-03-12T04:12:10;97400.72;;;-0.15;55.02
71915;BME280;60387;49.994;14.660;2023-03-12T04:14:43;97410.31;;;-0.14;54.74
71915;BME280;60387;49.994;14.660;2023-03-12T04:17:17;97415.63;;;-0.14;55.09
71915;BME280;60387;49.994;14.660;2023-03-12T04:19:51;97411.91;;;-0.13;55.56
71915;BME280;60387;49.994;14.660;2023-03-12T04:22:24;97408.38;;;-0.19;56.02
71915;BME280;60387;49.994;14.660;2023-03-12T04:24:58;97419.91;;;-0.13;55.45
71915;BME280;60387;49.994;14.660;2023-03-12T04:27:31;97421.53;;;-0.12;55.54
71915;BME280;60387;49.994;14.660;2023-03-12T04:30:05;97414.56;;;-0.13;56.02
71915;BME280;60387;49.994;14.660;2023-03-12T04:32:38;97423.94;;;-0.11;55.63
71915;BME280;60387;49.994;14.660;2023-03-12T04:35:12;97425.81;;;-0.11;55.45
71915;BME280;60387;49.994;14.660;2023-03-12T04:37:45;97423.16;;;-0.11;57.19
71915;BME280;60387;49.994;14.660;2023-03-12T04:40:19;97434.59;;;-0.11;55.83
71915;BME280;60387;49.994;14.660;2023-03-12T04:42:52;97428.22;;;-0.10;56.18
71915;BME280;60387;49.994;14.660;2023-03-12T04:45:25;97434.03;;;-0.13;55.89
71915;BME280;60387;49.994;14.660;2023-03-12T04:47:59;97432.09;;;-0.17;55.90
71915;BME280;60387;49.994;14.660;2023-03-12T04:50:32;97431.59;;;-0.14;55.93
71915;BME280;60387;49.994;14.660;2023-03-12T04:53:06;97434.25;;;-0.14;56.74
71915;BME280;60387;49.994;14.660;2023-03-12T04:55:39;97430.31;;;-0.12;58.30
71915;BME280;60387;49.994;14.660;2023-03-12T04:58:13;97431.69;;;-0.09;58.30
71915;BME280;60387;49.994;14.660;2023-03-12T05:00:47;97437.34;;;-0.06;56.84
71915;BME280;60387;49.994;14.660;2023-03-12T05:03:21;97435.75;;;-0.07;57.18
71915;BME280;60387;49.994;14.660;2023-03-12T05:05:54;97434.75;;;-0.01;57.15
71915;BME280;60387;49.994;14.660;2023-03-12T05:08:27;97436.06;;;-0.03;56.83
71915;BME280;60387;49.994;14.660;2023-03-12T05:11:00;97424.75;;;-0.10;57.34
71915;BME280;60387;49.994;14.660;2023-03-12T05:13:34;97440.56;;;-0.04;57.13
71915;BME280;60387;49.994;14.660;2023-03-12T05:16:08;97442.41;;;-0.05;56.86
71915;BME280;60387;49.994;14.660;2023-03-12T05:18:42;97444.06;;;-0.03;56.86
71915;BME280;60387;49.994;14.660;2023-03-12T05:21:18;97449.38;;;-0.03;56.71
71915;BME280;60387;49.994;14.660;2023-03-12T05:23:52;97445.34;;;-0.06;56.94
71915;BME280;60387;49.994;14.660;2023-03-12T05:26:31;97440.25;;;-0.08;56.40
71915;BME280;60387;49.994;14.660;2023-03-12T05:29:05;97451.53;;;-0.01;57.09
71915;BME280;60387;49.994;14.660;2023-03-12T05:31:38;97457.44;;;0.01;57.38
71915;BME280;60387;49.994;14.660;2023-03-12T05:34:15;97450.59;;;0.05;57.28
71915;BME280;60387;49.994;14.660;2023-03-12T05:36:48;97447.09;;;0.05;57.05
71915;BME280;60387;49.994;14.660;2023-03-12T05:39:22;97450.66;;;0.10;56.37
71915;BME280;60387;49.994;14.660;2023-03-12T05:41:56;97446.16;;;0.11;56.75
71915;BME280;60387;49.994;14.660;2023-03-12T05:44:29;97449.13;;;0.14;56.74
71915;BME280;60387;49.994;14.660;2023-03-12T05:47:02;97454.53;;;0.19;56.79
71915;BME280;60387;49.994;14.660;2023-03-12T05:49:36;97454.06;;;0.22;56.57
71915;BME280;60387;49.994;14.660;2023-03-12T05:52:10;97444.03;;;0.29;56.57
71915;BME280;60387;49.994;14.660;2023-03-12T05:54:44;97440.97;;;0.37;56.44
71915;BME280;60387;49.994;14.660;2023-03-12T05:57:17;97450.56;;;0.55;57.38
71915;BME280;60387;49.994;14.660;2023-03-12T05:59:50;97447.13;;;0.76;57.08
71915;BME280;60387;49.994;14.660;2023-03-12T06:02:24;97455.22;;;1.02;56.69
71915;BME280;60387;49.994;14.660;2023-03-12T06:04:57;97440.59;;;1.26;56.97
71915;BME280;60387;49.994;14.660;2023-03-12T06:07:30;97454.53;;;1.55;55.98
71915;BME280;60387;49.994;14.660;2023-03-12T06:10:04;97447.25;;;1.77;55.74
71915;BME280;60387;49.994;14.660;2023-03-12T06:12:37;97452.50;;;1.93;55.96
71915;BME280;60387;49.994;14.660;2023-03-12T06:15:11;97453.38;;;2.04;55.81
71915;BME280;60387;49.994;14.660;2023-03-12T06:17:44;97453.78;;;2.17;54.89
71915;BME280;60387;49.994;14.660;2023-03-12T06:20:17;97449.63;;;2.31;55.39
71915;BME280;60387;49.994;14.660;2023-03-12T06:22:51;97451.34;;;2.47;55.29
71915;BME280;60387;49.994;14.660;2023-03-12T06:25:24;97447.22;;;2.66;54.94
71915;BME280;60387;49.994;14.660;2023-03-12T06:27:57;97437.69;;;2.80;55.12
71915;BME280;60387;49.994;14.660;2023-03-12T06:30:31;97452.75;;;2.96;54.60
71915;BME280;60387;49.994;14.660;2023-03-12T06:33:04;97452.81;;;3.06;54.71
71915;BME280;60387;49.994;14.660;2023-03-12T06:35:37;97446.41;;;3.12;54.33
71915;BME280;60387;49.994;14.660;2023-03-12T06:38:11;97451.78;;;3.12;53.87
71915;BME280;60387;49.994;14.660;2023-03-12T06:40:55;97455.56;;;3.21;54.57
71915;BME280;60387;49.994;14.660;2023-03-12T06:43:30;97465.19;;;3.27;53.81
71915;BME280;60387;49.994;14.660;2023-03-12T06:46:06;97461.22;;;3.34;54.48
71915;BME280;60387;49.994;14.660;2023-03-12T06:48:39;97459.91;;;3.37;54.25
71915;BME280;60387;49.994;14.660;2023-03-12T06:51:14;97463.94;;;3.44;54.33
71915;BME280;60387;49.994;14.660;2023-03-12T06:53:48;97473.91;;;3.54;54.03
71915;BME280;60387;49.994;14.660;2023-03-12T06:56:21;97473.91;;;3.59;53.61
71915;BME280;60387;49.994;14.660;2023-03-12T06:58:55;97469.09;;;3.66;53.34
71915;BME280;60387;49.994;14.660;2023-03-12T07:01:28;97475.84;;;3.78;54.03
71915;BME280;60387;49.994;14.660;2023-03-12T07:04:01;97480.16;;;3.94;53.56
71915;BME280;60387;49.994;14.660;2023-03-12T07:06:34;97485.53;;;4.04;53.42
71915;BME280;60387;49.994;14.660;2023-03-12T07:09:08;97482.59;;;4.11;53.13
71915;BME280;60387;49.994;14.660;2023-03-12T07:11:41;97487.97;;;4.21;53.25
71915;BME280;60387;49.994;14.660;2023-03-12T07:14:14;97495.47;;;4.29;52.89
71915;BME280;60387;49.994;14.660;2023-03-12T07:16:48;97490.66;;;4.36;52.42
71915;BME280;60387;49.994;14.660;2023-03-12T07:19:21;97490.69;;;4.41;52.71
71915;BME280;60387;49.994;14.660;2023-03-12T07:21:55;97496.31;;;4.54;52.62
71915;BME280;60387;49.994;14.660;2023-03-12T07:24:28;97495.25;;;4.70;52.41
71915;BME280;60387;49.994;14.660;2023-03-12T07:27:02;97488.50;;;4.88;51.42
71915;BME280;60387;49.994;14.660;2023-03-12T07:29:35;97488.19;;;5.09;52.06
71915;BME280;60387;49.994;14.660;2023-03-12T07:32:08;97482.53;;;5.26;50.80
71915;BME280;60387;49.994;14.660;2023-03-12T07:34:42;97480.59;;;5.36;50.64
71915;BME280;60387;49.994;14.660;2023-03-12T07:37:15;97486.22;;;5.50;50.30
71915;BME280;60387;49.994;14.660;2023-03-12T07:39:48;97490.47;;;5.56;50.18
71915;BME280;60387;49.994;14.660;2023-03-12T07:42:22;97488.81;;;5.65;50.10
71915;BME280;60387;49.994;14.660;2023-03-12T07:44:55;97496.31;;;5.73;49.99
71915;BME280;60387;49.994;14.660;2023-03-12T07:47:28;97492.00;;;5.82;50.21
71915;BME280;60387;49.994;14.660;2023-03-12T07:50:02;97486.88;;;5.90;50.06
71915;BME280;60387;49.994;14.660;2023-03-12T07:52:35;97489.50;;;5.95;48.96
71915;BME280;60387;49.994;14.660;2023-03-12T07:55:09;97488.09;;;6.08;49.72
71915;BME280;60387;49.994;14.660;2023-03-12T07:57:43;97482.91;;;6.21;49.50
71915;BME280;60387;49.994;14.660;2023-03-12T08:00:16;97483.31;;;6.38;49.07
71915;BME280;60387;49.994;14.660;2023-03-12T08:02:50;97485.34;;;6.56;49.14
71915;BME280;60387;49.994;14.660;2023-03-12T08:05:23;97485.91;;;6.86;48.88
71915;BME280;60387;49.994;14.660;2023-03-12T08:07:56;97479.94;;;7.18;47.56
71915;BME280;60387;49.994;14.660;2023-03-12T08:10:30;97486.91;;;7.47;45.70
71915;BME280;60387;49.994;14.660;2023-03-12T08:13:03;97488.25;;;7.68;46.55
71915;BME280;60387;49.994;14.660;2023-03-12T08:15:36;97476.41;;;7.88;49.35
71915;BME280;60387;49.994;14.660;2023-03-12T08:18:10;97467.66;;;8.19;50.13
71915;BME280;60387;49.994;14.660;2023-03-12T08:20:43;97479.06;;;8.67;47.14
71915;BME280;60387;49.994;14.660;2023-03-12T08:23:18;97484.75;;;8.97;46.33
71915;BME280;60387;49.994;14.660;2023-03-12T08:25:52;97484.50;;;9.26;44.92
71915;BME280;60387;49.994;14.660;2023-03-12T08:28:26;97476.41;;;9.52;45.74
71915;BME280;60387;49.994;14.660;2023-03-12T08:30:59;97487.34;;;9.88;45.41
71915;BME280;60387;49.994;14.660;2023-03-12T08:33:33;97484.53;;;10.20;45.07
71915;BME280;60387;49.994;14.660;2023-03-12T08:36:06;97466.16;;;10.52;43.99
71915;BME280;60387;49.994;14.660;2023-03-12T08:38:40;97480.59;;;10.83;43.78
71915;BME280;60387;49.994;14.660;2023-03-12T08:41:13;97476.63;;;11.11;42.22
71915;BME280;60387;49.994;14.660;2023-03-12T08:43:46;97469.06;;;11.30;42.60
71915;BME280;60387;49.994;14.660;2023-03-12T08:46:20;97476.81;;;11.54;42.55
71915;BME280;60387;49.994;14.660;2023-03-12T08:48:53;97472.03;;;11.81;43.83
71915;BME280;60387;49.994;14.660;2023-03-12T08:51:26;97476.06;;;12.09;41.95
71915;BME280;60387;49.994;14.660;2023-03-12T08:54:00;97484.28;;;12.35;41.42
71915;BME280;60387;49.994;14.660;2023-03-12T08:56:33;97477.59;;;12.58;40.94
71915;BME280;60387;49.994;14.660;2023-03-12T08:59:10;97477.88;;;12.81;41.09
71915;BME280;60387;49.994;14.660;2023-03-12T09:01:43;97470.50;;;12.90;41.76
71915;BME280;60387;49.994;14.660;2023-03-12T09:04:17;97485.41;;;13.18;41.43
71915;BME280;60387;49.994;14.660;2023-03-12T09:06:50;97483.91;;;13.29;40.16
71915;BME280;60387;49.994;14.660;2023-03-12T09:09:23;97474.28;;;13.40;41.53
71915;BME280;60387;49.994;14.660;2023-03-12T09:11:57;97484.34;;;13.48;39.85
71915;BME280;60387;49.994;14.660;2023-03-12T09:14:30;97481.91;;;13.55;37.20
71915;BME280;60387;49.994;14.660;2023-03-12T09:17:03;97476.00;;;13.53;37.52
71915;BME280;60387;49.994;14.660;2023-03-12T09:19:37;97486.22;;;13.65;35.99
71915;BME280;60387;49.994;14.660;2023-03-12T09:22:10;97489.25;;;13.72;35.45
71915;BME280;60387;49.994;14.660;2023-03-12T09:24:43;97493.34;;;13.78;34.13
71915;BME280;60387;49.994;14.660;2023-03-12T09:27:16;97487.28;;;13.72;35.05
71915;BME280;60387;49.994;14.660;2023-03-12T09:29:52;97490.03;;;13.72;34.45
71915;BME280;60387;49.994;14.660;2023-03-12T09:32:26;97478.16;;;13.77;34.91
71915;BME280;60387;49.994;14.660;2023-03-12T09:34:59;97483.88;;;13.84;36.30
71915;BME280;60387;49.994;14.660;2023-03-12T09:37:33;97480.47;;;13.95;35.13
71915;BME280;60387;49.994;14.660;2023-03-12T09:40:10;97489.53;;;14.08;34.12
71915;BME280;60387;49.994;14.660;2023-03-12T09:42:52;97484.09;;;14.08;32.06
71915;BME280;60387;49.994;14.660;2023-03-12T09:45:30;97487.44;;;14.05;32.66
71915;BME280;60387;49.994;14.660;2023-03-12T09:48:12;97481.69;;;14.06;33.72
71915;BME280;60387;49.994;14.660;2023-03-12T09:50:48;97473.13;;;14.16;32.54
71915;BME280;60387;49.994;14.660;2023-03-12T09:56:01;97474.75;;;14.67;33.42
71915;BME280;60387;49.994;14.660;2023-03-12T09:58:37;97471.00;;;14.92;32.46
71915;BME280;60387;49.994;14.660;2023-03-12T10:01:39;97472.78;;;15.20;32.56
71915;BME280;60387;49.994;14.660;2023-03-12T10:04:36;97478.66;;;15.31;32.29
71915;BME280;60387;49.994;14.660;2023-03-12T10:07:20;97472.88;;;15.32;32.16
71915;BME280;60387;49.994;14.660;2023-03-12T10:10:26;97470.50;;;15.43;33.58
71915;BME280;60387;49.994;14.660;2023-03-12T10:13:26;97462.44;;;15.58;33.69
71915;BME280;60387;49.994;14.660;2023-03-12T10:27:47;97445.47;;;16.48;31.08
71915;BME280;60387;49.994;14.660;2023-03-12T10:30:24;97448.16;;;16.60;31.37
71915;BME280;60387;49.994;14.660;2023-03-12T10:33:00;97449.84;;;16.77;31.88
71915;BME280;60387;49.994;14.660;2023-03-12T10:35:35;97450.09;;;16.99;32.85
71915;BME280;60387;49.994;14.660;2023-03-12T10:38:13;97446.72;;;17.18;30.95
71915;BME280;60387;49.994;14.660;2023-03-12T10:40:49;97455.50;;;17.39;31.12
71915;BME280;60387;49.994;14.660;2023-03-12T10:43:22;97458.25;;;17.54;29.04
71915;BME280;60387;49.994;14.660;2023-03-12T10:46:14;;;;17.40;
71915;BME280;60387;49.994;14.660;2023-03-12T10:52:15;97446.75;;;17.06;28.20
71915;BME280;60387;49.994;14.660;2023-03-12T10:54:50;97439.88;;;17.12;28.12
71915;BME280;60387;49.994;14.660;2023-03-12T10:57:38;97428.75;;;17.05;25.97
71915;BME280;60387;49.994;14.660;2023-03-12T11:02:57;97426.91;;;16.81;28.15
71915;BME280;60387;49.994;14.660;2023-03-12T11:05:36;97434.31;;;16.81;27.48
71915;BME280;60387;49.994;14.660;2023-03-12T11:08:27;97426.59;;;16.71;28.15
71915;BME280;60387;49.994;14.660;2023-03-12T11:11:02;97422.97;;;16.67;27.18
71915;BME280;60387;49.994;14.660;2023-03-12T11:13:38;97430.72;;;16.65;26.88
71915;BME280;60387;49.994;14.660;2023-03-12T11:21:34;97409.84;;;17.00;28.80
71915;BME280;60387;49.994;14.660;2023-03-12T11:24:12;97398.41;;;17.10;26.44
71915;BME280;60387;49.994;14.660;2023-03-12T11:27:05;97409.34;;;17.10;26.24
71915;BME280;60387;49.994;14.660;2023-03-12T11:29:44;97398.22;;;17.18;28.31
71915;BME280;60387;49.994;14.660;2023-03-12T11:35:05;97403.22;;;17.44;27.85
71915;BME280;60387;49.994;14.660;2023-03-12T11:40:58;97399.78;;;17.47;26.62
71915;BME280;60387;49.994;14.660;2023-03-12T11:52:21;97409.44;;;17.29;26.44
71915;BME280;60387;49.994;14.660;2023-03-12T11:55:43;97405.50;;;17.42;26.75
71915;BME280;60387;49.994;14.660;2023-03-12T11:58:19;97400.06;;;17.57;28.05
71915;BME280;60387;49.994;14.660;2023-03-12T12:09:18;97374.56;;;18.22;26.09
71915;BME280;60387;49.994;14.660;2023-03-12T12:26:11;97350.47;;;17.47;25.00
71915;BME280;60387;49.994;14.660;2023-03-12T12:31:34;97339.69;;;17.23;26.02
71915;BME280;60387;49.994;14.660;2023-03-12T12:39:55;97339.44;;;16.42;25.27
71915;BME280;60387;49.994;14.660;2023-03-12T12:42:34;97331.72;;;16.20;26.36
71915;BME280;60387;49.994;14.660;2023-03-12T12:45:12;97339.75;;;16.01;26.82
71915;BME280;60387;49.994;14.660;2023-03-12T12:47:51;97342.59;;;15.93;26.75
71915;BME280;60387;49.994;14.660;2023-03-12T12:50:29;97329.13;;;15.72;26.44
71915;BME280;60387;49.994;14.660;2023-03-12T12:53:45;97332.19;;;15.47;26.36
71915;BME280;60387;49.994;14.660;2023-03-12T12:56:33;97318.63;;;15.26;27.38
71915;BME280;60387;49.994;14.660;2023-03-12T12:59:30;97328.16;;;15.08;27.24
71915;BME280;60387;49.994;14.660;2023-03-12T13:02:18;97327.69;;;14.94;28.08
71915;BME280;60387;49.994;14.660;2023-03-12T13:04:57;97321.53;;;14.85;27.88
71915;BME280;60387;49.994;14.660;2023-03-12T13:07:31;97313.47;;;14.77;27.94
71915;BME280;60387;49.994;14.660;2023-03-12T13:10:06;97309.22;;;14.67;27.78
71915;BME280;60387;49.994;14.660;2023-03-12T13:12:51;97308.50;;;14.58;27.95
71915;BME280;60387;49.994;14.660;2023-03-12T13:18:07;97307.06;;;14.28;28.83
71915;BME280;60387;49.994;14.660;2023-03-12T13:21:12;97315.44;;;14.23;28.75
71915;BME280;60387;49.994;14.660;2023-03-12T13:26:48;97300.94;;;14.11;28.44
71915;BME280;60387;49.994;14.660;2023-03-12T13:31:56;97308.56;;;13.97;29.39
71915;BME280;60387;49.994;14.660;2023-03-12T13:34:40;97309.09;;;13.90;28.81
71915;BME280;60387;49.994;14.660;2023-03-12T13:37:46;97308.06;;;13.83;28.95
71915;BME280;60387;49.994;14.660;2023-03-12T13:43:14;97291.25;;;13.60;29.13
71915;BME280;60387;49.994;14.660;2023-03-12T13:46:05;97297.69;;;13.56;29.43
71915;BME280;60387;49.994;14.660;2023-03-12T13:48:44;97290.97;;;13.53;29.83
71915;BME280;60387;49.994;14.660;2023-03-12T13:51:20;97289.97;;;13.58;29.20
71915;BME280;60387;49.994;14.660;2023-03-12T13:53:58;97291.25;;;13.60;29.53
71915;BME280;60387;49.994;14.660;2023-03-12T13:56:32;97280.69;;;13.59;29.73
71915;BME280;60387;49.994;14.660;2023-03-12T13:59:14;97275.25;;;13.59;29.20
71915;BME280;60387;49.994;14.660;2023-03-12T14:01:50;97280.22;;;13.57;29.42
71915;BME280;60387;49.994;14.660;2023-03-12T14:04:40;97272.94;;;13.40;28.78
71915;BME280;60387;49.994;14.660;2023-03-12T14:07:37;97266.44;;;13.33;29.46
71915;BME280;60387;49.994;14.660;2023-03-12T14:10:19;97266.75;;;13.31;29.79
71915;BME280;60387;49.994;14.660;2023-03-12T14:13:15;97272.22;;;13.31;29.80
71915;BME280;60387;49.994;14.660;2023-03-12T14:16:21;97262.31;;;13.27;29.70
71915;BME280;60387;49.994;14.660;2023-03-12T14:18:58;97255.00;;;13.19;29.94
71915;BME280;60387;49.994;14.660;2023-03-12T14:21:34;97249.16;;;13.08;29.47
71915;BME280;60387;49.994;14.660;2023-03-12T14:24:50;97253.19;;;13.02;29.95
71915;BME280;60387;49.994;14.660;2023-03-12T14:27:28;97253.03;;;12.99;30.47
71915;BME280;60387;49.994;14.660;2023-03-12T14:32:45;97237.72;;;12.94;30.59
71915;BME280;60387;49.994;14.660;2023-03-12T14:38:06;97251.28;;;12.86;30.33
71915;BME280;60387;49.994;14.660;2023-03-12T14:43:36;97245.16;;;12.69;30.29
71915;BME280;60387;49.994;14.660;2023-03-12T14:46:17;97247.63;;;12.53;30.48
71915;BME280;60387;49.994;14.660;2023-03-12T14:48:52;97246.03;;;12.44;30.79
71915;BME280;60387;49.994;14.660;2023-03-12T14:51:28;97239.84;;;12.26;30.37
71915;BME280;60387;49.994;14.660;2023-03-12T14:54:02;97244.19;;;12.19;31.35
71915;BME280;60387;49.994;14.660;2023-03-12T14:56:35;97231.28;;;11.99;31.30
71915;BME280;60387;49.994;14.660;2023-03-12T15:02:09;97234.34;;;11.89;31.37
71915;BME280;60387;49.994;14.660;2023-03-12T15:04:44;97238.66;;;11.90;31.98
71915;BME280;60387;49.994;14.660;2023-03-12T15:07:22;97225.41;;;11.88;31.89
71915;BME280;60387;49.994;14.660;2023-03-12T15:09:56;97222.22;;;11.86;32.09
71915;BME280;60387;49.994;14.660;2023-03-12T15:12:34;97224.91;;;11.78;32.44
71915;BME280;60387;49.994;14.660;2023-03-12T15:15:35;97224.78;;;11.66;32.70
71915;BME280;60387;49.994;14.660;2023-03-12T15:18:21;97226.50;;;11.62;32.93